createdAt,value
2018-06-28T00:00:00.552Z,31.50
2018-06-28T00:02:29.574Z,28.27
2018-06-28T00:04:58.668Z,25.20
2018-06-28T00:07:27.707Z,26.70
2018-06-28T00:09:56.433Z,26.90
2018-06-28T00:12:25.463Z,28.40
2018-06-28T00:14:54.462Z,28.83
2018-06-28T00:17:23.692Z,35.93
2018-06-28T00:19:52.746Z,27.07
2018-06-28T00:22:21.504Z,30.93
2018-06-28T00:24:50.468Z,23.17
2018-06-28T00:27:19.498Z,32.20
2018-06-28T00:29:48.352Z,38.03
2018-06-28T00:32:17.310Z,27.50
2018-06-28T00:34:46.409Z,34.67
2018-06-28T00:37:15.119Z,32.83
2018-06-28T00:39:44.364Z,36.87
2018-06-28T00:42:13.395Z,28.30
2018-06-28T00:44:42.808Z,35.33
2018-06-28T00:47:11.828Z,27.67
2018-06-28T00:49:40.855Z,35.47
2018-06-28T00:52:09.916Z,28.90
2018-06-28T00:54:39.152Z,33.97
2018-06-28T00:57:08.766Z,33.53
2018-06-28T00:59:38.093Z,34.53
2018-06-28T01:02:07.185Z,35.90
2018-06-28T01:04:36.203Z,35.50
2018-06-28T01:07:05.415Z,29.33
2018-06-28T01:09:34.473Z,29.83
2018-06-28T01:12:03.431Z,34.10
2018-06-28T01:14:32.376Z,32.23
2018-06-28T01:17:01.485Z,32.10
2018-06-28T01:19:30.695Z,44.63
2018-06-28T01:21:59.800Z,35.93
2018-06-28T01:24:28.502Z,40.53
2018-06-28T01:26:57.533Z,36.10
2018-06-28T01:29:26.592Z,31.30
2018-06-28T01:31:55.685Z,37.60
2018-06-28T01:34:24.704Z,33.67
2018-06-28T01:36:53.411Z,39.67
2018-06-28T01:39:22.379Z,37.70
2018-06-28T01:42:02.584Z,36.00
2018-06-28T01:44:31.583Z,35.73
2018-06-28T01:47:00.611Z,45.73
2018-06-28T01:49:29.665Z,39.97
2018-06-28T01:51:58.680Z,51.03
2018-06-28T01:54:27.693Z,41.60
2018-06-28T01:56:56.754Z,45.03
2018-06-28T01:59:25.782Z,36.40
2018-06-28T02:01:54.859Z,39.10
2018-06-28T02:04:24.352Z,43.00
2018-06-28T02:06:53.047Z,49.57
2018-06-28T02:09:22.168Z,38.40
2018-06-28T02:11:51.179Z,42.67
2018-06-28T02:14:20.224Z,41.90
2018-06-28T02:16:49.264Z,37.73
2018-06-28T02:19:18.272Z,41.07
2018-06-28T02:21:47.308Z,37.90
2018-06-28T02:24:16.340Z,42.40
2018-06-28T02:26:45.368Z,45.53
2018-06-28T02:29:14.383Z,44.80
2018-06-28T02:31:43.384Z,43.47
2018-06-28T02:34:12.432Z,51.43
2018-06-28T02:36:41.683Z,41.27
2018-06-28T02:39:10.421Z,50.03
2018-06-28T02:41:39.359Z,56.70
2018-06-28T02:44:08.391Z,56.37
2018-06-28T02:46:37.531Z,61.13
2018-06-28T02:49:06.235Z,54.17
2018-06-28T02:51:35.196Z,50.53
2018-06-28T02:54:04.171Z,56.57
2018-06-28T02:56:33.155Z,62.67
2018-06-28T02:59:02.180Z,54.77
2018-06-28T03:01:31.188Z,57.47
2018-06-28T03:04:00.089Z,52.03
2018-06-28T03:06:29.131Z,56.57
2018-06-28T03:08:58.199Z,58.73
2018-06-28T03:11:27.241Z,60.67
2018-06-28T03:13:56.284Z,52.77
2018-06-28T03:16:25.322Z,59.30
2018-06-28T03:18:54.454Z,39.50
2018-06-28T03:21:23.172Z,65.40
2018-06-28T03:23:52.116Z,48.60
2018-06-28T03:26:21.126Z,56.17
2018-06-28T03:28:50.128Z,58.87
2018-06-28T03:31:19.188Z,67.63
2018-06-28T03:33:48.240Z,56.23
2018-06-28T03:36:17.276Z,53.97
2018-06-28T03:38:46.332Z,56.17
2018-06-28T03:41:15.384Z,60.43
2018-06-28T03:43:44.086Z,59.07
2018-06-28T03:46:13.067Z,56.70
2018-06-28T03:48:41.772Z,66.53
2018-06-28T03:51:10.702Z,66.13
2018-06-28T03:53:39.916Z,55.07
2018-06-28T03:56:08.996Z,60.50
2018-06-28T03:58:38.019Z,54.00
2018-06-28T04:01:07.056Z,63.83
2018-06-28T04:03:36.104Z,56.13
2018-06-28T04:06:05.556Z,51.07
2018-06-28T04:08:34.596Z,56.83
2018-06-28T04:11:03.704Z,55.17
2018-06-28T04:13:32.704Z,53.40
2018-06-28T04:16:01.739Z,60.37
2018-06-28T04:18:30.474Z,48.30
2018-06-28T04:20:59.427Z,55.93
2018-06-28T04:23:28.471Z,52.87
2018-06-28T04:25:57.543Z,52.60
2018-06-28T04:28:26.600Z,59.10
2018-06-28T04:30:55.616Z,47.57
2018-06-28T04:33:24.343Z,51.83
2018-06-28T04:35:53.295Z,50.37
2018-06-28T04:38:22.332Z,51.23
2018-06-28T04:40:51.399Z,43.23
2018-06-28T04:43:20.380Z,51.03
2018-06-28T04:45:49.716Z,49.17
2018-06-28T04:48:18.750Z,45.77
2018-06-28T04:50:47.737Z,52.80
2018-06-28T04:53:16.772Z,49.90
2018-06-28T04:55:45.812Z,50.17
2018-06-28T04:58:14.976Z,46.77
2018-06-28T05:00:44.004Z,46.77
2018-06-28T05:03:13.052Z,46.27
2018-06-28T05:05:42.121Z,44.30
2018-06-28T05:08:11.128Z,50.43
2018-06-28T05:10:40.140Z,41.47
2018-06-28T05:13:09.177Z,36.67
2018-06-28T05:15:38.264Z,42.97
2018-06-28T05:18:07.265Z,48.83
2018-06-28T05:20:36.303Z,41.63
2018-06-28T05:23:05.413Z,51.77
2018-06-28T05:25:34.436Z,42.10
2018-06-28T05:28:03.452Z,45.27
2018-06-28T05:30:32.500Z,44.27
2018-06-28T05:33:01.822Z,47.87
2018-06-28T05:35:30.856Z,39.23
2018-06-28T05:37:59.899Z,34.37
2018-06-28T05:40:28.923Z,32.23
2018-06-28T05:42:57.654Z,37.07
2018-06-28T05:45:26.283Z,41.83
2018-06-28T05:47:55.273Z,39.63
2018-06-28T05:50:24.020Z,46.33
2018-06-28T05:52:53.849Z,31.53
2018-06-28T05:55:22.870Z,41.87
2018-06-28T05:57:51.903Z,35.80
2018-06-28T06:00:20.913Z,33.17
2018-06-28T06:02:50.156Z,33.50
2018-06-28T06:05:19.196Z,38.10
2018-06-28T06:07:47.903Z,32.00
2018-06-28T06:10:16.930Z,39.23
2018-06-28T06:12:46.007Z,33.93
2018-06-28T06:15:14.956Z,31.40
2018-06-28T06:17:44.073Z,29.77
2018-06-28T06:20:13.172Z,35.73
2018-06-28T06:22:42.140Z,30.17
2018-06-28T06:25:11.166Z,32.90
2018-06-28T06:27:40.084Z,31.07
2018-06-28T06:30:09.924Z,27.73
2018-06-28T06:32:39.003Z,23.60
2018-06-28T06:35:08.052Z,26.73
2018-06-28T06:37:36.768Z,29.10
2018-06-28T06:40:05.780Z,28.80
2018-06-28T06:42:34.869Z,29.60
2018-06-28T06:45:04.517Z,28.90
2018-06-28T06:47:33.568Z,30.43
2018-06-28T06:50:03.178Z,25.40
2018-06-28T06:52:32.199Z,24.80
2018-06-28T06:55:01.267Z,22.57
2018-06-28T06:57:30.315Z,23.83
2018-06-28T06:59:59.356Z,21.73
2018-06-28T07:02:28.469Z,24.40
2018-06-28T07:04:57.829Z,21.50
2018-06-28T07:07:26.868Z,25.10
2018-06-28T07:09:55.909Z,26.17
2018-06-28T07:12:24.956Z,25.73
2018-06-28T07:14:53.984Z,21.43
2018-06-28T07:17:23.017Z,24.77
2018-06-28T07:19:52.066Z,24.63
2018-06-28T07:22:21.150Z,21.97
2018-06-28T07:24:50.168Z,18.50
2018-06-28T07:27:19.212Z,23.33
2018-06-28T07:29:48.293Z,17.13
2018-06-28T07:32:17.020Z,22.37
2018-06-28T07:34:45.952Z,23.17
2018-06-28T07:37:15.009Z,29.87
2018-06-28T07:39:44.092Z,20.03
2018-06-28T07:42:13.239Z,19.07
2018-06-28T07:44:42.292Z,19.63
2018-06-28T07:47:11.333Z,16.77
2018-06-28T07:49:40.053Z,27.13
2018-06-28T07:52:09.008Z,22.60
2018-06-28T07:54:38.037Z,19.83
2018-06-28T07:57:07.075Z,18.63
2018-06-28T07:59:36.175Z,19.97
2018-06-28T08:02:05.234Z,18.07
2018-06-28T08:04:34.248Z,16.37
2018-06-28T08:07:03.313Z,19.87
2018-06-28T08:09:32.341Z,21.00
2018-06-28T08:12:01.512Z,17.50
2018-06-28T08:14:30.567Z,17.10
2018-06-28T08:16:59.832Z,16.10
2018-06-28T08:19:28.587Z,18.17
2018-06-28T08:21:57.238Z,15.17
2018-06-28T08:24:26.501Z,17.60
2018-06-28T08:26:55.279Z,24.50
2018-06-28T08:29:24.396Z,21.47
2018-06-28T08:31:53.115Z,18.57
2018-06-28T08:34:22.148Z,16.70
2018-06-28T08:36:51.547Z,16.47
2018-06-28T08:39:20.712Z,18.43
2018-06-28T08:41:49.765Z,15.40
2018-06-28T08:44:18.813Z,15.83
2018-06-28T08:46:47.519Z,16.37
2018-06-28T08:49:16.492Z,16.63
2018-06-28T08:51:45.207Z,12.43
2018-06-28T08:54:14.167Z,20.07
2018-06-28T08:56:43.183Z,18.70
2018-06-28T08:59:11.841Z,17.47
2018-06-28T09:01:40.474Z,16.10
2018-06-28T09:04:09.428Z,15.13
2018-06-28T09:06:38.495Z,19.80
2018-06-28T09:09:08.021Z,16.43
2018-06-28T09:11:37.051Z,17.27
2018-06-28T09:14:06.019Z,12.80
2018-06-28T09:16:35.383Z,19.13
2018-06-28T09:19:04.407Z,19.00
2018-06-28T09:21:33.021Z,16.20
2018-06-28T09:24:01.698Z,11.87
2018-06-28T09:26:30.660Z,15.93
2018-06-28T09:28:59.445Z,13.27
2018-06-28T09:31:28.801Z,13.73
2018-06-28T09:33:57.534Z,14.00
2018-06-28T09:36:26.695Z,18.00
2018-06-28T09:38:55.818Z,16.90
2018-06-28T09:41:24.912Z,12.90
2018-06-28T09:43:53.597Z,15.23
2018-06-28T09:46:22.580Z,17.10
2018-06-28T09:48:51.299Z,21.03
2018-06-28T09:51:19.925Z,16.20
2018-06-28T09:53:48.990Z,12.80
2018-06-28T09:56:17.936Z,14.23
2018-06-28T09:58:46.947Z,16.93
2018-06-28T10:01:15.704Z,14.60
2018-06-28T10:03:44.592Z,13.53
2018-06-28T10:06:13.248Z,14.60
2018-06-28T10:08:42.478Z,16.20
2018-06-28T10:11:11.166Z,9.80
2018-06-28T10:13:40.331Z,12.30
2018-06-28T10:16:09.411Z,13.57
2018-06-28T10:18:38.367Z,14.57
2018-06-28T10:21:07.311Z,11.23
2018-06-28T10:23:36.343Z,13.07
2018-06-28T10:26:05.665Z,17.20
2018-06-28T10:28:34.742Z,13.37
2018-06-28T10:31:03.506Z,14.53
2018-06-28T10:33:32.167Z,16.47
2018-06-28T10:36:00.772Z,14.60
2018-06-28T10:38:29.728Z,11.60
2018-06-28T10:40:58.859Z,10.93
2018-06-28T10:43:27.784Z,17.93
2018-06-28T10:45:57.695Z,16.23
2018-06-28T10:48:27.406Z,16.30
2018-06-28T10:50:56.496Z,12.80
2018-06-28T10:53:25.837Z,17.23
2018-06-28T10:55:54.854Z,14.73
2018-06-28T10:58:23.876Z,14.87
2018-06-28T11:00:52.959Z,13.40
2018-06-28T11:03:21.972Z,13.57
2018-06-28T11:05:52.023Z,13.67
2018-06-28T11:08:21.132Z,15.13
2018-06-28T11:10:50.718Z,14.93
2018-06-28T11:13:20.319Z,14.80
2018-06-28T11:15:50.345Z,14.27
2018-06-28T11:18:19.456Z,14.10
2018-06-28T11:20:48.746Z,11.07
2018-06-28T11:23:18.296Z,13.07
2018-06-28T11:25:47.719Z,13.40
2018-06-28T11:28:16.755Z,13.70
2018-06-28T11:30:46.376Z,12.47
2018-06-28T11:33:15.380Z,16.73
2018-06-28T11:35:44.644Z,14.53
2018-06-28T11:38:13.348Z,11.47
2018-06-28T11:40:41.988Z,11.87
2018-06-28T11:43:10.910Z,12.60
2018-06-28T11:45:39.977Z,13.30
2018-06-28T11:48:09.064Z,16.43
2018-06-28T11:50:38.132Z,11.57
2018-06-28T11:53:07.164Z,8.10
2018-06-28T11:55:36.259Z,11.93
2018-06-28T11:58:05.604Z,7.67
2018-06-28T12:00:34.651Z,7.07
2018-06-28T12:03:03.372Z,18.40
2018-06-28T12:05:32.371Z,7.90
2018-06-28T12:08:01.341Z,9.37
2018-06-28T12:10:30.377Z,11.40
2018-06-28T12:12:59.094Z,8.87
2018-06-28T12:15:28.107Z,8.83
2018-06-28T12:17:56.761Z,7.60
2018-06-28T12:20:25.743Z,9.33
2018-06-28T12:22:54.844Z,9.40
2018-06-28T12:25:23.606Z,10.43
2018-06-28T12:27:52.519Z,8.87
2018-06-28T12:30:21.567Z,12.23
2018-06-28T12:32:50.639Z,8.67
2018-06-28T12:35:19.655Z,9.40
2018-06-28T12:37:48.672Z,9.43
2018-06-28T12:40:17.691Z,8.50
2018-06-28T12:42:46.869Z,7.27
2018-06-28T12:45:17.966Z,11.23
2018-06-28T12:47:58.807Z,4.57
2018-06-28T12:50:28.226Z,5.07
2018-06-28T12:52:59.437Z,9.07
2018-06-28T12:56:32.772Z,8.67
2018-06-28T12:59:03.474Z,11.30
2018-06-28T13:01:32.602Z,8.07
2018-06-28T13:04:01.667Z,10.13
2018-06-28T13:06:30.744Z,12.13
2018-06-28T13:09:00.221Z,6.47
2018-06-28T13:11:29.499Z,7.30
2018-06-28T13:13:58.204Z,7.87
2018-06-28T13:16:27.829Z,10.27
2018-06-28T13:18:56.807Z,11.20
2018-06-28T13:21:25.841Z,9.23
2018-06-28T13:23:54.871Z,4.87
2018-06-28T13:26:24.372Z,11.70
2018-06-28T13:28:53.383Z,6.47
2018-06-28T13:31:22.111Z,6.53
2018-06-28T13:33:50.742Z,7.73
2018-06-28T13:36:19.647Z,8.80
2018-06-28T13:38:48.715Z,8.43
2018-06-28T13:41:17.636Z,6.20
2018-06-28T13:43:46.091Z,7.23
2018-06-28T13:46:14.789Z,5.87
2018-06-28T13:48:43.671Z,6.53
2018-06-28T13:51:12.758Z,4.70
2018-06-28T13:53:41.449Z,7.83
2018-06-28T13:56:10.415Z,6.57
2018-06-28T13:58:39.567Z,4.80
2018-06-28T14:01:08.631Z,4.53
2018-06-28T14:03:37.639Z,3.87
2018-06-28T14:06:06.359Z,3.47
2018-06-28T14:08:35.315Z,9.07
2018-06-28T14:11:04.060Z,4.73
2018-06-28T14:13:33.024Z,3.70
2018-06-28T14:16:02.040Z,4.83
2018-06-28T14:18:31.039Z,2.57
2018-06-28T14:21:00.098Z,3.27
2018-06-28T14:23:28.816Z,7.40
2018-06-28T14:25:57.813Z,4.70
2018-06-28T14:28:26.871Z,3.10
2018-06-28T14:30:55.912Z,3.73
2018-06-28T14:33:24.984Z,4.73
2018-06-28T14:35:54.005Z,2.83
2018-06-28T14:38:23.036Z,4.20
2018-06-28T14:40:52.085Z,8.70
2018-06-28T14:43:21.096Z,3.40
2018-06-28T14:45:50.119Z,2.87
2018-06-28T14:48:19.152Z,6.23
2018-06-28T14:50:48.179Z,5.43
2018-06-28T14:53:17.226Z,2.93
2018-06-28T14:55:46.053Z,3.70
2018-06-28T14:58:15.021Z,5.07
2018-06-28T15:00:44.219Z,5.07
2018-06-28T15:03:13.419Z,3.27
2018-06-28T15:05:42.503Z,4.23
2018-06-28T15:08:12.093Z,7.20
2018-06-28T15:10:41.141Z,5.63
2018-06-28T15:13:10.179Z,5.33
2018-06-28T15:15:39.215Z,3.90
2018-06-28T15:18:08.254Z,4.33
2018-06-28T15:20:36.961Z,3.00
2018-06-28T15:23:06.243Z,5.93
2018-06-28T15:25:35.421Z,4.27
2018-06-28T15:28:04.483Z,5.27
2018-06-28T15:30:33.895Z,6.47
2018-06-28T15:33:02.655Z,6.60
2018-06-28T15:35:31.866Z,3.73
2018-06-28T15:38:00.917Z,4.13
2018-06-28T15:40:29.929Z,5.30
2018-06-28T15:42:58.655Z,4.30
2018-06-28T15:45:27.641Z,6.77
2018-06-28T15:47:56.691Z,3.77
2018-06-28T15:50:25.916Z,4.80
2018-06-28T15:52:54.977Z,5.30
2018-06-28T15:55:24.032Z,3.23
2018-06-28T15:57:53.236Z,4.73
2018-06-28T16:00:22.340Z,4.57
2018-06-28T16:02:51.378Z,5.40
2018-06-28T16:05:20.182Z,4.80
2018-06-28T16:07:49.448Z,3.23
2018-06-28T16:10:18.478Z,5.53
2018-06-28T16:12:47.184Z,4.90
2018-06-28T16:15:16.175Z,2.70
2018-06-28T16:17:45.215Z,7.07
2018-06-28T16:20:14.110Z,5.30
2018-06-28T16:22:42.698Z,2.70
2018-06-28T16:25:11.622Z,5.43
2018-06-28T16:27:40.678Z,2.70
2018-06-28T16:30:09.404Z,3.53
2018-06-28T16:32:38.320Z,4.07
2018-06-28T16:35:07.348Z,6.37
2018-06-28T16:37:36.395Z,2.73
2018-06-28T16:40:05.491Z,2.70
2018-06-28T16:42:34.219Z,2.87
2018-06-28T16:45:03.200Z,3.87
2018-06-28T16:47:32.217Z,2.53
2018-06-28T16:50:01.285Z,2.97
2018-06-28T16:52:30.304Z,7.87
2018-06-28T16:54:59.020Z,5.27
2018-06-28T16:57:27.974Z,2.60
2018-06-28T16:59:56.988Z,4.77
2018-06-28T17:02:26.040Z,3.73
2018-06-28T17:04:55.076Z,4.57
2018-06-28T17:07:23.972Z,7.43
2018-06-28T17:09:52.926Z,4.97
2018-06-28T17:12:21.652Z,7.63
2018-06-28T17:14:50.625Z,6.13
2018-06-28T17:17:19.708Z,7.07
2018-06-28T17:19:48.747Z,4.20
2018-06-28T17:22:17.784Z,6.00
2018-06-28T17:24:46.814Z,12.60
2018-06-28T17:27:15.840Z,3.17
2018-06-28T17:29:44.544Z,7.73
2018-06-28T17:32:13.512Z,6.87
2018-06-28T17:34:42.262Z,6.40
2018-06-28T17:37:10.958Z,4.53
2018-06-28T17:39:46.070Z,7.67
2018-06-28T17:42:14.788Z,8.23
2018-06-28T17:44:43.462Z,5.83
2018-06-28T17:47:12.247Z,7.23
2018-06-28T17:49:41.027Z,7.70
2018-06-28T17:52:09.963Z,5.87
2018-06-28T17:54:38.979Z,8.53
2018-06-28T17:59:42.619Z,12.07
2018-06-28T18:02:11.531Z,6.73
2018-06-28T18:04:40.270Z,8.33
2018-06-28T18:07:08.866Z,7.67
2018-06-28T18:09:37.499Z,6.73
2018-06-28T18:12:06.119Z,6.57
2018-06-28T18:14:35.083Z,6.93
2018-06-28T18:17:03.832Z,8.50
2018-06-28T18:19:32.908Z,5.17
2018-06-28T18:24:36.652Z,5.40
2018-06-28T18:27:05.290Z,7.47
2018-06-28T18:29:34.293Z,5.83
2018-06-28T18:32:03.368Z,5.67
2018-06-28T18:34:32.663Z,5.17
2018-06-28T18:37:01.689Z,7.70
2018-06-28T18:39:30.431Z,7.20
2018-06-28T18:41:59.099Z,6.53
2018-06-28T18:44:27.743Z,10.30
2018-06-28T18:46:56.720Z,4.10
2018-06-28T18:49:25.727Z,7.17
2018-06-28T18:51:54.427Z,5.27
2018-06-28T18:54:23.409Z,8.70
2018-06-28T18:56:52.118Z,5.10
2018-06-28T18:59:20.744Z,4.97
2018-06-28T19:01:49.392Z,6.67
2018-06-28T19:04:18.040Z,5.03
2018-06-28T19:06:47.200Z,7.27
2018-06-28T19:09:15.859Z,3.77
2018-06-28T19:11:44.785Z,7.70
2018-06-28T19:14:19.201Z,3.77
2018-06-28T19:16:53.419Z,4.80
2018-06-28T19:19:22.472Z,5.07
2018-06-28T19:21:56.901Z,5.83
2018-06-28T19:24:26.155Z,5.53
2018-06-28T19:26:55.235Z,4.27
2018-06-28T19:29:29.583Z,2.47
2018-06-28T19:32:03.903Z,5.50
2018-06-28T19:34:32.942Z,5.13
2018-06-28T19:37:01.635Z,5.90
2018-06-28T19:39:36.454Z,4.07
2018-06-28T19:42:10.731Z,5.23
2018-06-28T19:44:39.815Z,2.60
2018-06-28T19:47:08.858Z,3.20
2018-06-28T19:49:43.135Z,4.23
2018-06-28T19:52:17.633Z,3.23
2018-06-28T19:54:46.334Z,4.23
2018-06-28T19:57:15.280Z,7.13
2018-06-28T19:59:47.135Z,4.70
2018-06-28T20:02:21.726Z,3.63
2018-06-28T20:04:51.167Z,6.10
2018-06-28T20:07:20.278Z,6.30
2018-06-28T20:09:49.299Z,6.07
2018-06-28T20:12:23.687Z,4.83
2018-06-28T20:14:57.793Z,10.10
2018-06-28T20:17:31.984Z,5.53
2018-06-28T20:20:06.303Z,3.43
2018-06-28T20:22:35.356Z,4.70
2018-06-28T20:25:04.482Z,4.83
2018-06-28T20:27:38.451Z,4.53
2018-06-28T20:30:12.620Z,5.83
2018-06-28T20:32:46.924Z,5.67
2018-06-28T20:35:15.992Z,3.77
2018-06-28T20:37:45.272Z,3.53
2018-06-28T20:40:14.344Z,3.67
2018-06-28T20:42:43.416Z,6.23
2018-06-28T20:45:12.564Z,5.73
2018-06-28T20:47:41.512Z,5.50
2018-06-28T20:50:10.807Z,7.13
2018-06-28T20:52:39.850Z,5.30
2018-06-28T20:55:09.144Z,5.10
2018-06-28T20:57:39.117Z,4.03
2018-06-28T21:00:09.496Z,6.90
2018-06-28T21:02:39.083Z,4.20
2018-06-28T21:05:08.128Z,6.87
2018-06-28T21:07:37.154Z,7.70
2018-06-28T21:10:06.481Z,7.37
2018-06-28T21:12:35.472Z,5.87
2018-06-28T21:15:04.758Z,5.13
2018-06-28T21:17:33.822Z,7.30
2018-06-28T21:20:02.827Z,4.23
2018-06-28T21:22:32.210Z,6.03
2018-06-28T21:25:01.287Z,5.93
2018-06-28T21:27:30.307Z,6.47
2018-06-28T21:29:59.396Z,4.83
2018-06-28T21:32:28.596Z,7.83
2018-06-28T21:34:57.595Z,6.00
2018-06-28T21:37:26.588Z,8.50
2018-06-28T21:39:56.167Z,3.87
2018-06-28T21:42:25.245Z,7.73
2018-06-28T21:44:54.246Z,7.43
2018-06-28T21:47:23.303Z,8.00
2018-06-28T21:49:52.340Z,4.77
2018-06-28T21:52:22.348Z,6.00
2018-06-28T21:54:51.400Z,5.43
2018-06-28T21:57:20.439Z,6.77
2018-06-28T21:59:49.784Z,5.17
2018-06-28T22:02:18.773Z,9.00
2018-06-28T22:04:47.501Z,7.07
2018-06-28T22:07:16.478Z,10.23
2018-06-28T22:09:45.490Z,8.30
2018-06-28T22:12:14.517Z,5.50
2018-06-28T22:14:43.563Z,7.30
2018-06-28T22:17:12.580Z,12.30
2018-06-28T22:19:41.614Z,7.33
2018-06-28T22:22:10.696Z,5.87
2018-06-28T22:24:40.115Z,5.20
2018-06-28T22:27:09.151Z,8.50
2018-06-28T22:29:38.143Z,8.10
2018-06-28T22:32:07.244Z,9.23
2018-06-28T22:34:36.271Z,7.80
2018-06-28T22:37:05.612Z,10.90
2018-06-28T22:39:34.287Z,12.20
2018-06-28T22:42:03.242Z,8.50
2018-06-28T22:44:31.983Z,10.07
2018-06-28T22:47:00.907Z,13.47
2018-06-28T22:49:29.937Z,12.37
2018-06-28T22:51:58.969Z,9.77
2018-06-28T22:54:28.639Z,10.70
2018-06-28T22:56:57.700Z,11.10
2018-06-28T22:59:26.753Z,7.67
2018-06-28T23:01:55.763Z,10.37
2018-06-28T23:04:24.667Z,9.93
2018-06-28T23:06:53.763Z,10.60
2018-06-28T23:09:22.645Z,10.70
2018-06-28T23:11:51.923Z,10.27
2018-06-28T23:14:20.964Z,8.83
2018-06-28T23:16:49.738Z,11.30
2018-06-28T23:19:18.711Z,13.57
2018-06-28T23:21:47.680Z,10.10
2018-06-28T23:24:16.719Z,10.43
2018-06-28T23:26:45.742Z,10.00
2018-06-28T23:29:14.823Z,11.20
2018-06-28T23:31:44.105Z,10.30
2018-06-28T23:34:12.808Z,14.07
2018-06-28T23:36:41.779Z,10.27
2018-06-28T23:39:11.871Z,17.47
2018-06-28T23:41:40.608Z,10.97
2018-06-28T23:44:09.555Z,11.27
2018-06-28T23:46:38.624Z,12.23
2018-06-28T23:49:07.763Z,14.70
2018-06-28T23:51:36.895Z,10.83
2018-06-28T23:54:05.979Z,12.30
2018-06-28T23:56:35.622Z,11.23
2018-06-28T23:59:04.635Z,11.10
